sensor_id;sensor_type;location;lat;lon;timestamp;P1;durP1;ratioP1;P2;durP2;ratioP2
3347;SDS011;1687;49.540;8.574;2023-03-31T00:01:36;5.30;;;1.73;;
3347;SDS011;1687;49.540;8.574;2023-03-31T00:04:06;3.13;;;1.33;;
3347;SDS011;1687;49.540;8.574;2023-03-31T00:06:36;7.97;;;1.10;;
3347;SDS011;1687;49.540;8.574;2023-03-31T00:09:15;4.63;;;1.83;;
3347;SDS011;1687;49.540;8.574;2023-03-31T00:11:46;6.73;;;1.50;;
3347;SDS011;1687;49.540;8.574;2023-03-31T00:14:16;3.70;;;2.33;;
3347;SDS011;1687;49.540;8.574;2023-03-31T00:16:43;7.37;;;3.03;;
3347;SDS011;1687;49.540;8.574;2023-03-31T00:19:11;4.17;;;1.93;;
3347;SDS011;1687;49.540;8.574;2023-03-31T00:21:44;3.30;;;1.53;;
3347;SDS011;1687;49.540;8.574;2023-03-31T00:24:11;9.03;;;2.10;;
3347;SDS011;1687;49.540;8.574;2023-03-31T00:26:38;7.57;;;2.27;;
3347;SDS011;1687;49.540;8.574;2023-03-31T00:29:05;3.87;;;1.63;;
3347;SDS011;1687;49.540;8.574;2023-03-31T00:31:32;4.43;;;1.40;;
3347;SDS011;1687;49.540;8.574;2023-03-31T00:33:58;2.77;;;1.17;;
3347;SDS011;1687;49.540;8.574;2023-03-31T00:36:24;3.40;;;1.40;;
3347;SDS011;1687;49.540;8.574;2023-03-31T00:38:58;3.77;;;1.70;;
3347;SDS011;1687;49.540;8.574;2023-03-31T00:41:28;4.73;;;1.50;;
3347;SDS011;1687;49.540;8.574;2023-03-31T00:49:49;6.60;;;1.20;;
3347;SDS011;1687;49.540;8.574;2023-03-31T00:54:53;4.53;;;1.80;;
3347;SDS011;1687;49.540;8.574;2023-03-31T00:57:24;4.33;;;1.53;;
3347;SDS011;1687;49.540;8.574;2023-03-31T00:59:54;9.23;;;2.20;;
3347;SDS011;1687;49.540;8.574;2023-03-31T01:02:35;5.93;;;1.67;;
3347;SDS011;1687;49.540;8.574;2023-03-31T01:05:05;7.23;;;1.50;;
3347;SDS011;1687;49.540;8.574;2023-03-31T01:07:37;4.93;;;1.93;;
3347;SDS011;1687;49.540;8.574;2023-03-31T01:10:08;9.73;;;1.90;;
3347;SDS011;1687;49.540;8.574;2023-03-31T01:12:36;7.67;;;1.70;;
3347;SDS011;1687;49.540;8.574;2023-03-31T01:15:04;15.27;;;3.07;;
3347;SDS011;1687;49.540;8.574;2023-03-31T01:17:31;5.47;;;1.80;;
3347;SDS011;1687;49.540;8.574;2023-03-31T01:31:41;7.80;;;2.07;;
3347;SDS011;1687;49.540;8.574;2023-03-31T01:40:55;7.63;;;2.40;;
3347;SDS011;1687;49.540;8.574;2023-03-31T01:46:34;4.60;;;1.90;;
3347;SDS011;1687;49.540;8.574;2023-03-31T01:49:23;6.70;;;2.33;;
3347;SDS011;1687;49.540;8.574;2023-03-31T01:52:18;3.97;;;1.80;;
3347;SDS011;1687;49.540;8.574;2023-03-31T01:55:04;4.77;;;1.30;;
3347;SDS011;1687;49.540;8.574;2023-03-31T01:57:40;4.30;;;1.50;;
3347;SDS011;1687;49.540;8.574;2023-03-31T02:00:18;3.93;;;1.67;;
3347;SDS011;1687;49.540;8.574;2023-03-31T02:02:57;5.73;;;1.80;;
3347;SDS011;1687;49.540;8.574;2023-03-31T02:05:36;8.50;;;1.90;;
3347;SDS011;1687;49.540;8.574;2023-03-31T02:08:11;2.83;;;1.80;;
3347;SDS011;1687;49.540;8.574;2023-03-31T02:10:42;9.80;;;2.20;;
3347;SDS011;1687;49.540;8.574;2023-03-31T02:13:10;4.60;;;1.83;;
3347;SDS011;1687;49.540;8.574;2023-03-31T02:15:39;7.93;;;1.93;;
3347;SDS011;1687;49.540;8.574;2023-03-31T02:18:09;5.07;;;2.27;;
3347;SDS011;1687;49.540;8.574;2023-03-31T02:20:41;10.23;;;2.77;;
3347;SDS011;1687;49.540;8.574;2023-03-31T02:23:10;3.40;;;1.30;;
3347;SDS011;1687;49.540;8.574;2023-03-31T02:25:52;11.47;;;1.97;;
3347;SDS011;1687;49.540;8.574;2023-03-31T02:28:29;3.93;;;1.67;;
3347;SDS011;1687;49.540;8.574;2023-03-31T02:31:42;8.50;;;2.00;;
3347;SDS011;1687;49.540;8.574;2023-03-31T02:33:50;10.10;;;2.63;;
3347;SDS011;1687;49.540;8.574;2023-03-31T02:36:16;15.93;;;2.20;;
3347;SDS011;1687;49.540;8.574;2023-03-31T02:38:45;3.30;;;1.27;;
3347;SDS011;1687;49.540;8.574;2023-03-31T02:41:17;6.37;;;1.93;;
3347;SDS011;1687;49.540;8.574;2023-03-31T02:43:43;7.40;;;2.33;;
3347;SDS011;1687;49.540;8.574;2023-03-31T02:46:09;3.60;;;1.73;;
3347;SDS011;1687;49.540;8.574;2023-03-31T02:48:39;4.33;;;1.60;;
3347;SDS011;1687;49.540;8.574;2023-03-31T02:51:18;4.13;;;1.80;;
3347;SDS011;1687;49.540;8.574;2023-03-31T02:54:19;5.87;;;1.70;;
3347;SDS011;1687;49.540;8.574;2023-03-31T02:57:09;5.60;;;1.60;;
3347;SDS011;1687;49.540;8.574;2023-03-31T03:06:26;7.57;;;1.70;;
3347;SDS011;1687;49.540;8.574;2023-03-31T03:09:00;8.53;;;1.30;;
3347;SDS011;1687;49.540;8.574;2023-03-31T03:12:09;2.87;;;1.53;;
3347;SDS011;1687;49.540;8.574;2023-03-31T03:14:55;3.60;;;1.70;;
3347;SDS011;1687;49.540;8.574;2023-03-31T03:17:38;5.70;;;1.80;;
3347;SDS011;1687;49.540;8.574;2023-03-31T03:20:08;3.80;;;1.20;;
3347;SDS011;1687;49.540;8.574;2023-03-31T03:22:36;1.70;;;0.90;;
3347;SDS011;1687;49.540;8.574;2023-03-31T03:25:07;11.37;;;2.33;;
3347;SDS011;1687;49.540;8.574;2023-03-31T03:27:36;4.27;;;1.90;;
3347;SDS011;1687;49.540;8.574;2023-03-31T03:30:03;1.97;;;1.00;;
3347;SDS011;1687;49.540;8.574;2023-03-31T03:32:31;6.93;;;1.60;;
3347;SDS011;1687;49.540;8.574;2023-03-31T03:34:57;4.03;;;1.30;;
3347;SDS011;1687;49.540;8.574;2023-03-31T03:37:27;2.97;;;1.57;;
3347;SDS011;1687;49.540;8.574;2023-03-31T03:39:54;9.03;;;1.63;;
3347;SDS011;1687;49.540;8.574;2023-03-31T03:42:19;8.70;;;2.00;;
3347;SDS011;1687;49.540;8.574;2023-03-31T03:44:45;2.93;;;1.17;;
3347;SDS011;1687;49.540;8.574;2023-03-31T03:47:11;5.20;;;1.23;;
3347;SDS011;1687;49.540;8.574;2023-03-31T03:49:37;3.13;;;1.80;;
3347;SDS011;1687;49.540;8.574;2023-03-31T03:52:03;10.63;;;2.00;;
3347;SDS011;1687;49.540;8.574;2023-03-31T03:54:28;2.83;;;1.07;;
3347;SDS011;1687;49.540;8.574;2023-03-31T03:56:54;6.43;;;1.83;;
3347;SDS011;1687;49.540;8.574;2023-03-31T03:59:20;4.13;;;1.43;;
3347;SDS011;1687;49.540;8.574;2023-03-31T04:01:46;2.83;;;1.50;;
3347;SDS011;1687;49.540;8.574;2023-03-31T04:04:11;2.23;;;1.20;;
3347;SDS011;1687;49.540;8.574;2023-03-31T04:06:37;5.80;;;1.67;;
3347;SDS011;1687;49.540;8.574;2023-03-31T04:09:03;6.10;;;1.97;;
3347;SDS011;1687;49.540;8.574;2023-03-31T04:11:29;4.33;;;1.60;;
3347;SDS011;1687;49.540;8.574;2023-03-31T04:13:55;2.80;;;1.20;;
3347;SDS011;1687;49.540;8.574;2023-03-31T04:16:21;5.80;;;1.77;;
3347;SDS011;1687;49.540;8.574;2023-03-31T04:18:49;12.83;;;1.73;;
3347;SDS011;1687;49.540;8.574;2023-03-31T04:21:17;6.67;;;1.70;;
3347;SDS011;1687;49.540;8.574;2023-03-31T04:23:52;9.77;;;2.10;;
3347;SDS011;1687;49.540;8.574;2023-03-31T04:26:32;15.20;;;2.40;;
3347;SDS011;1687;49.540;8.574;2023-03-31T04:29:11;4.07;;;1.60;;
3347;SDS011;1687;49.540;8.574;2023-03-31T04:31:40;2.00;;;1.20;;
3347;SDS011;1687;49.540;8.574;2023-03-31T04:34:07;9.77;;;2.30;;
3347;SDS011;1687;49.540;8.574;2023-03-31T04:36:41;13.47;;;1.60;;
3347;SDS011;1687;49.540;8.574;2023-03-31T04:39:17;4.07;;;1.67;;
3347;SDS011;1687;49.540;8.574;2023-03-31T04:41:51;3.73;;;1.40;;
3347;SDS011;1687;49.540;8.574;2023-03-31T04:44:17;5.90;;;1.73;;
3347;SDS011;1687;49.540;8.574;2023-03-31T04:46:43;5.17;;;1.80;;
3347;SDS011;1687;49.540;8.574;2023-03-31T04:49:08;21.97;;;1.80;;
3347;SDS011;1687;49.540;8.574;2023-03-31T04:51:34;7.37;;;1.93;;
3347;SDS011;1687;49.540;8.574;2023-03-31T04:54:00;6.80;;;1.77;;
3347;SDS011;1687;49.540;8.574;2023-03-31T04:56:25;7.10;;;2.57;;
3347;SDS011;1687;49.540;8.574;2023-03-31T04:58:51;5.13;;;1.90;;
3347;SDS011;1687;49.540;8.574;2023-03-31T05:01:17;3.40;;;1.50;;
3347;SDS011;1687;49.540;8.574;2023-03-31T05:03:43;10.40;;;2.23;;
3347;SDS011;1687;49.540;8.574;2023-03-31T05:06:11;4.97;;;1.83;;
3347;SDS011;1687;49.540;8.574;2023-03-31T05:08:39;14.67;;;3.80;;
3347;SDS011;1687;49.540;8.574;2023-03-31T05:11:05;6.03;;;1.90;;
3347;SDS011;1687;49.540;8.574;2023-03-31T05:13:30;4.00;;;1.93;;
3347;SDS011;1687;49.540;8.574;2023-03-31T05:15:56;7.70;;;2.03;;
3347;SDS011;1687;49.540;8.574;2023-03-31T05:18:22;9.73;;;3.07;;
3347;SDS011;1687;49.540;8.574;2023-03-31T05:20:48;7.33;;;1.43;;
3347;SDS011;1687;49.540;8.574;2023-03-31T05:23:14;4.90;;;2.00;;
3347;SDS011;1687;49.540;8.574;2023-03-31T05:25:39;3.33;;;1.57;;
3347;SDS011;1687;49.540;8.574;2023-03-31T05:28:06;10.37;;;3.03;;
3347;SDS011;1687;49.540;8.574;2023-03-31T05:30:32;8.23;;;2.00;;
3347;SDS011;1687;49.540;8.574;2023-03-31T05:32:58;4.50;;;1.87;;
3347;SDS011;1687;49.540;8.574;2023-03-31T05:35:24;8.20;;;2.20;;
3347;SDS011;1687;49.540;8.574;2023-03-31T05:37:49;5.10;;;2.57;;
3347;SDS011;1687;49.540;8.574;2023-03-31T05:40:15;9.03;;;2.87;;
3347;SDS011;1687;49.540;8.574;2023-03-31T05:42:41;5.60;;;1.87;;
3347;SDS011;1687;49.540;8.574;2023-03-31T05:45:07;7.93;;;2.10;;
3347;SDS011;1687;49.540;8.574;2023-03-31T05:47:33;11.23;;;2.43;;
3347;SDS011;1687;49.540;8.574;2023-03-31T05:49:58;5.73;;;2.60;;
3347;SDS011;1687;49.540;8.574;2023-03-31T05:52:24;12.83;;;2.20;;
3347;SDS011;1687;49.540;8.574;2023-03-31T05:54:50;6.60;;;2.73;;
3347;SDS011;1687;49.540;8.574;2023-03-31T05:57:16;7.17;;;2.37;;
3347;SDS011;1687;49.540;8.574;2023-03-31T05:59:41;5.70;;;2.00;;
3347;SDS011;1687;49.540;8.574;2023-03-31T06:02:09;7.63;;;2.50;;
3347;SDS011;1687;49.540;8.574;2023-03-31T06:04:37;10.10;;;2.93;;
3347;SDS011;1687;49.540;8.574;2023-03-31T06:07:03;5.07;;;2.50;;
3347;SDS011;1687;49.540;8.574;2023-03-31T06:09:29;5.90;;;2.87;;
3347;SDS011;1687;49.540;8.574;2023-03-31T06:11:55;4.80;;;2.70;;
3347;SDS011;1687;49.540;8.574;2023-03-31T06:14:21;9.80;;;3.60;;
3347;SDS011;1687;49.540;8.574;2023-03-31T06:16:47;9.87;;;2.90;;
3347;SDS011;1687;49.540;8.574;2023-03-31T06:19:13;8.33;;;3.43;;
3347;SDS011;1687;49.540;8.574;2023-03-31T06:21:39;9.87;;;3.70;;
3347;SDS011;1687;49.540;8.574;2023-03-31T06:24:05;7.30;;;3.20;;
3347;SDS011;1687;49.540;8.574;2023-03-31T06:26:33;7.43;;;3.10;;
3347;SDS011;1687;49.540;8.574;2023-03-31T06:28:58;7.77;;;2.60;;
3347;SDS011;1687;49.540;8.574;2023-03-31T06:31:24;11.90;;;3.97;;
3347;SDS011;1687;49.540;8.574;2023-03-31T06:33:50;9.50;;;4.23;;
3347;SDS011;1687;49.540;8.574;2023-03-31T06:36:17;6.20;;;3.03;;
3347;SDS011;1687;49.540;8.574;2023-03-31T06:38:45;12.03;;;3.10;;
3347;SDS011;1687;49.540;8.574;2023-03-31T06:41:12;11.57;;;3.10;;
3347;SDS011;1687;49.540;8.574;2023-03-31T06:43:39;5.80;;;3.17;;
3347;SDS011;1687;49.540;8.574;2023-03-31T06:46:05;8.63;;;3.70;;
3347;SDS011;1687;49.540;8.574;2023-03-31T06:48:31;4.87;;;3.07;;
3347;SDS011;1687;49.540;8.574;2023-03-31T06:50:58;7.50;;;3.77;;
3347;SDS011;1687;49.540;8.574;2023-03-31T06:53:26;7.27;;;3.50;;
3347;SDS011;1687;49.540;8.574;2023-03-31T06:55:53;9.47;;;3.50;;
3347;SDS011;1687;49.540;8.574;2023-03-31T06:58:18;8.30;;;4.07;;
3347;SDS011;1687;49.540;8.574;2023-03-31T07:00:44;14.93;;;4.10;;
3347;SDS011;1687;49.540;8.574;2023-03-31T07:03:10;8.00;;;3.80;;
3347;SDS011;1687;49.540;8.574;2023-03-31T07:05:36;7.17;;;4.00;;
3347;SDS011;1687;49.540;8.574;2023-03-31T07:08:02;5.20;;;3.50;;
3347;SDS011;1687;49.540;8.574;2023-03-31T07:10:29;22.13;;;3.73;;
3347;SDS011;1687;49.540;8.574;2023-03-31T07:12:56;8.00;;;4.03;;
3347;SDS011;1687;49.540;8.574;2023-03-31T07:15:23;10.20;;;4.30;;
3347;SDS011;1687;49.540;8.574;2023-03-31T07:17:52;9.73;;;4.00;;
3347;SDS011;1687;49.540;8.574;2023-03-31T07:20:25;8.87;;;4.00;;
3347;SDS011;1687;49.540;8.574;2023-03-31T07:22:51;12.20;;;3.30;;
3347;SDS011;1687;49.540;8.574;2023-03-31T07:25:17;6.37;;;3.43;;
3347;SDS011;1687;49.540;8.574;2023-03-31T07:27:43;9.37;;;3.73;;
3347;SDS011;1687;49.540;8.574;2023-03-31T07:30:10;10.63;;;4.77;;
3347;SDS011;1687;49.540;8.574;2023-03-31T07:32:42;6.30;;;2.90;;
3347;SDS011;1687;49.540;8.574;2023-03-31T07:35:10;11.20;;;4.10;;
3347;SDS011;1687;49.540;8.574;2023-03-31T07:37:40;11.50;;;4.30;;
3347;SDS011;1687;49.540;8.574;2023-03-31T07:40:10;4.97;;;3.10;;
3347;SDS011;1687;49.540;8.574;2023-03-31T07:42:39;16.00;;;5.60;;
3347;SDS011;1687;49.540;8.574;2023-03-31T07:45:06;10.03;;;3.83;;
3347;SDS011;1687;49.540;8.574;2023-03-31T07:47:33;13.77;;;5.07;;
3347;SDS011;1687;49.540;8.574;2023-03-31T07:49:59;9.17;;;4.93;;
3347;SDS011;1687;49.540;8.574;2023-03-31T07:52:25;22.97;;;4.10;;
3347;SDS011;1687;49.540;8.574;2023-03-31T07:54:50;8.03;;;4.03;;
3347;SDS011;1687;49.540;8.574;2023-03-31T07:57:16;13.17;;;3.77;;
3347;SDS011;1687;49.540;8.574;2023-03-31T07:59:43;13.70;;;4.70;;
3347;SDS011;1687;49.540;8.574;2023-03-31T08:02:13;8.57;;;3.63;;
3347;SDS011;1687;49.540;8.574;2023-03-31T08:04:42;9.17;;;4.30;;
3347;SDS011;1687;49.540;8.574;2023-03-31T08:07:10;12.13;;;3.93;;
3347;SDS011;1687;49.540;8.574;2023-03-31T08:09:37;10.27;;;4.23;;
3347;SDS011;1687;49.540;8.574;2023-03-31T08:12:04;11.00;;;4.00;;
3347;SDS011;1687;49.540;8.574;2023-03-31T08:14:31;7.93;;;4.17;;
3347;SDS011;1687;49.540;8.574;2023-03-31T08:16:57;7.60;;;3.60;;
3347;SDS011;1687;49.540;8.574;2023-03-31T08:19:24;7.63;;;3.50;;
3347;SDS011;1687;49.540;8.574;2023-03-31T08:21:51;7.23;;;3.60;;
3347;SDS011;1687;49.540;8.574;2023-03-31T08:24:17;6.00;;;3.20;;
3347;SDS011;1687;49.540;8.574;2023-03-31T08:26:43;6.03;;;3.60;;
3347;SDS011;1687;49.540;8.574;2023-03-31T08:29:09;4.47;;;2.70;;
3347;SDS011;1687;49.540;8.574;2023-03-31T08:31:34;7.53;;;3.40;;
3347;SDS011;1687;49.540;8.574;2023-03-31T08:34:00;5.90;;;3.00;;
3347;SDS011;1687;49.540;8.574;2023-03-31T08:36:27;8.83;;;4.03;;
3347;SDS011;1687;49.540;8.574;2023-03-31T08:38:53;7.13;;;3.60;;
3347;SDS011;1687;49.540;8.574;2023-03-31T08:44:28;7.43;;;3.23;;
3347;SDS011;1687;49.540;8.574;2023-03-31T08:46:55;17.27;;;9.93;;
3347;SDS011;1687;49.540;8.574;2023-03-31T08:49:24;8.43;;;4.33;;
3347;SDS011;1687;49.540;8.574;2023-03-31T08:51:54;13.60;;;3.90;;
3347;SDS011;1687;49.540;8.574;2023-03-31T08:54:38;13.00;;;4.00;;
3347;SDS011;1687;49.540;8.574;2023-03-31T08:57:11;4.80;;;3.00;;
3347;SDS011;1687;49.540;8.574;2023-03-31T08:59:47;6.93;;;3.80;;
3347;SDS011;1687;49.540;8.574;2023-03-31T09:02:28;14.03;;;4.10;;
3347;SDS011;1687;49.540;8.574;2023-03-31T09:05:22;14.77;;;4.70;;
3347;SDS011;1687;49.540;8.574;2023-03-31T09:08:36;13.00;;;5.17;;
3347;SDS011;1687;49.540;8.574;2023-03-31T09:11:08;15.53;;;3.70;;
3347;SDS011;1687;49.540;8.574;2023-03-31T09:19:37;7.90;;;2.57;;
3347;SDS011;1687;49.540;8.574;2023-03-31T09:22:42;2.10;;;1.43;;
3347;SDS011;1687;49.540;8.574;2023-03-31T09:25:15;4.57;;;2.90;;
3347;SDS011;1687;49.540;8.574;2023-03-31T09:27:49;4.93;;;2.00;;
3347;SDS011;1687;49.540;8.574;2023-03-31T09:30:20;7.67;;;2.43;;
3347;SDS011;1687;49.540;8.574;2023-03-31T09:33:13;5.40;;;1.50;;
3347;SDS011;1687;49.540;8.574;2023-03-31T09:36:00;6.53;;;1.90;;
3347;SDS011;1687;49.540;8.574;2023-03-31T09:38:27;3.40;;;1.43;;
3347;SDS011;1687;49.540;8.574;2023-03-31T09:40:55;6.10;;;2.33;;
3347;SDS011;1687;49.540;8.574;2023-03-31T09:43:24;4.60;;;2.37;;
3347;SDS011;1687;49.540;8.574;2023-03-31T09:45:52;6.33;;;3.17;;
3347;SDS011;1687;49.540;8.574;2023-03-31T09:48:22;5.07;;;2.10;;
3347;SDS011;1687;49.540;8.574;2023-03-31T09:51:03;12.10;;;1.70;;
3347;SDS011;1687;49.540;8.574;2023-03-31T09:56:30;6.90;;;2.50;;
3347;SDS011;1687;49.540;8.574;2023-03-31T09:59:38;9.03;;;3.50;;
3347;SDS011;1687;49.540;8.574;2023-03-31T10:02:23;5.40;;;1.70;;
3347;SDS011;1687;49.540;8.574;2023-03-31T10:05:04;5.67;;;1.90;;
3347;SDS011;1687;49.540;8.574;2023-03-31T10:07:42;5.50;;;1.87;;
3347;SDS011;1687;49.540;8.574;2023-03-31T10:10:09;12.73;;;3.30;;
3347;SDS011;1687;49.540;8.574;2023-03-31T10:12:53;6.60;;;2.63;;
3347;SDS011;1687;49.540;8.574;2023-03-31T10:15:20;2.63;;;1.30;;
3347;SDS011;1687;49.540;8.574;2023-03-31T10:17:51;9.20;;;3.90;;
3347;SDS011;1687;49.540;8.574;2023-03-31T10:20:31;11.57;;;4.37;;
3347;SDS011;1687;49.540;8.574;2023-03-31T10:23:16;7.00;;;2.93;;
3347;SDS011;1687;49.540;8.574;2023-03-31T10:25:52;5.97;;;3.37;;
3347;SDS011;1687;49.540;8.574;2023-03-31T10:28:19;10.30;;;2.73;;
3347;SDS011;1687;49.540;8.574;2023-03-31T10:30:53;5.37;;;2.40;;
3347;SDS011;1687;49.540;8.574;2023-03-31T10:33:22;8.10;;;2.90;;
3347;SDS011;1687;49.540;8.574;2023-03-31T10:35:54;9.83;;;3.30;;
3347;SDS011;1687;49.540;8.574;2023-03-31T10:38:23;17.07;;;2.93;;
3347;SDS011;1687;49.540;8.574;2023-03-31T10:40:54;12.43;;;3.60;;
3347;SDS011;1687;49.540;8.574;2023-03-31T10:45:57;9.07;;;3.13;;
3347;SDS011;1687;49.540;8.574;2023-03-31T10:48:25;10.60;;;2.33;;
3347;SDS011;1687;49.540;8.574;2023-03-31T10:50:59;9.13;;;2.73;;
3347;SDS011;1687;49.540;8.574;2023-03-31T10:53:38;2.60;;;1.70;;
3347;SDS011;1687;49.540;8.574;2023-03-31T11:02:28;6.97;;;2.70;;
3347;SDS011;1687;49.540;8.574;2023-03-31T11:05:19;5.47;;;2.53;;
3347;SDS011;1687;49.540;8.574;2023-03-31T11:08:11;5.10;;;1.30;;
3347;SDS011;1687;49.540;8.574;2023-03-31T11:11:10;6.93;;;1.93;;
3347;SDS011;1687;49.540;8.574;2023-03-31T11:14:07;4.73;;;1.70;;
3347;SDS011;1687;49.540;8.574;2023-03-31T11:27:54;5.37;;;1.30;;
3347;SDS011;1687;49.540;8.574;2023-03-31T11:42:32;5.60;;;1.67;;
3347;SDS011;1687;49.540;8.574;2023-03-31T11:45:27;9.70;;;1.37;;
3347;SDS011;1687;49.540;8.574;2023-03-31T11:48:01;6.73;;;1.77;;
3347;SDS011;1687;49.540;8.574;2023-03-31T11:50:36;6.33;;;1.83;;
3347;SDS011;1687;49.540;8.574;2023-03-31T11:53:23;4.10;;;1.40;;
3347;SDS011;1687;49.540;8.574;2023-03-31T11:55:56;8.83;;;1.60;;
3347;SDS011;1687;49.540;8.574;2023-03-31T11:58:40;2.77;;;1.13;;
3347;SDS011;1687;49.540;8.574;2023-03-31T12:01:28;8.47;;;1.20;;
3347;SDS011;1687;49.540;8.574;2023-03-31T12:12:43;17.60;;;1.80;;
3347;SDS011;1687;49.540;8.574;2023-03-31T12:18:36;2.50;;;1.20;;
3347;SDS011;1687;49.540;8.574;2023-03-31T12:21:00;4.23;;;1.17;;
3347;SDS011;1687;49.540;8.574;2023-03-31T12:23:29;5.53;;;1.37;;
3347;SDS011;1687;49.540;8.574;2023-03-31T12:29:02;6.70;;;1.73;;
3347;SDS011;1687;49.540;8.574;2023-03-31T12:31:40;5.80;;;1.70;;
3347;SDS011;1687;49.540;8.574;2023-03-31T12:34:11;7.40;;;1.50;;
3347;SDS011;1687;49.540;8.574;2023-03-31T12:40:19;1.93;;;0.90;;
3347;SDS011;1687;49.540;8.574;2023-03-31T12:45:30;1.77;;;0.70;;
3347;SDS011;1687;49.540;8.574;2023-03-31T12:48:16;1.67;;;0.73;;
3347;SDS011;1687;49.540;8.574;2023-03-31T12:51:39;1.60;;;0.83;;
3347;SDS011;1687;49.540;8.574;2023-03-31T12:57:45;1.60;;;0.70;;
3347;SDS011;1687;49.540;8.574;2023-03-31T13:00:19;1.77;;;0.90;;
3347;SDS011;1687;49.540;8.574;2023-03-31T13:02:48;3.37;;;1.30;;
3347;SDS011;1687;49.540;8.574;2023-03-31T13:08:08;1.17;;;0.70;;
3347;SDS011;1687;49.540;8.574;2023-03-31T13:10:52;1.50;;;0.80;;
3347;SDS011;1687;49.540;8.574;2023-03-31T13:13:23;4.53;;;1.20;;
3347;SDS011;1687;49.540;8.574;2023-03-31T13:15:51;1.37;;;1.10;;
3347;SDS011;1687;49.540;8.574;2023-03-31T13:18:19;3.30;;;1.00;;
3347;SDS011;1687;49.540;8.574;2023-03-31T13:20:46;1.60;;;0.80;;
3347;SDS011;1687;49.540;8.574;2023-03-31T13:23:28;4.73;;;1.10;;
3347;SDS011;1687;49.540;8.574;2023-03-31T13:25:59;4.67;;;0.93;;
3347;SDS011;1687;49.540;8.574;2023-03-31T13:31:07;2.20;;;1.03;;
3347;SDS011;1687;49.540;8.574;2023-03-31T13:45:04;3.20;;;1.00;;
3347;SDS011;1687;49.540;8.574;2023-03-31T14:02:11;8.93;;;1.80;;
3347;SDS011;1687;49.540;8.574;2023-03-31T14:07:57;4.43;;;1.20;;
3347;SDS011;1687;49.540;8.574;2023-03-31T14:10:37;7.70;;;0.90;;
3347;SDS011;1687;49.540;8.574;2023-03-31T14:13:16;3.50;;;1.07;;
3347;SDS011;1687;49.540;8.574;2023-03-31T14:15:54;7.73;;;1.80;;
3347;SDS011;1687;49.540;8.574;2023-03-31T14:21:06;4.13;;;1.27;;
3347;SDS011;1687;49.540;8.574;2023-03-31T14:27:18;6.23;;;1.70;;
3347;SDS011;1687;49.540;8.574;2023-03-31T14:33:17;7.13;;;1.23;;
3347;SDS011;1687;49.540;8.574;2023-03-31T14:35:56;11.13;;;1.23;;
3347;SDS011;1687;49.540;8.574;2023-03-31T14:38:36;6.60;;;1.37;;
3347;SDS011;1687;49.540;8.574;2023-03-31T14:41:02;4.80;;;1.40;;
3347;SDS011;1687;49.540;8.574;2023-03-31T14:43:29;4.23;;;1.00;;
3347;SDS011;1687;49.540;8.574;2023-03-31T14:46:39;5.57;;;1.60;;
3347;SDS011;1687;49.540;8.574;2023-03-31T14:48:47;5.40;;;1.80;;
3347;SDS011;1687;49.540;8.574;2023-03-31T14:51:16;6.80;;;1.03;;
3347;SDS011;1687;49.540;8.574;2023-03-31T14:53:56;3.37;;;1.10;;
3347;SDS011;1687;49.540;8.574;2023-03-31T14:56:29;3.10;;;1.40;;
3347;SDS011;1687;49.540;8.574;2023-03-31T14:59:01;4.67;;;1.27;;
3347;SDS011;1687;49.540;8.574;2023-03-31T15:01:29;9.13;;;1.37;;
3347;SDS011;1687;49.540;8.574;2023-03-31T15:04:00;2.63;;;1.23;;
3347;SDS011;1687;49.540;8.574;2023-03-31T15:06:31;3.17;;;1.17;;
3347;SDS011;1687;49.540;8.574;2023-03-31T15:08:59;3.70;;;1.30;;
3347;SDS011;1687;49.540;8.574;2023-03-31T15:11:28;13.33;;;1.00;;
3347;SDS011;1687;49.540;8.574;2023-03-31T15:13:55;2.73;;;1.00;;
3347;SDS011;1687;49.540;8.574;2023-03-31T15:16:34;4.00;;;1.57;;
3347;SDS011;1687;49.540;8.574;2023-03-31T15:19:19;5.70;;;1.40;;
3347;SDS011;1687;49.540;8.574;2023-03-31T15:21:55;6.30;;;1.47;;
3347;SDS011;1687;49.540;8.574;2023-03-31T15:24:28;5.47;;;1.57;;
3347;SDS011;1687;49.540;8.574;2023-03-31T15:27:00;7.80;;;1.70;;
3347;SDS011;1687;49.540;8.574;2023-03-31T15:29:47;4.30;;;1.63;;
3347;SDS011;1687;49.540;8.574;2023-03-31T15:32:22;4.70;;;1.30;;
3347;SDS011;1687;49.540;8.574;2023-03-31T15:34:51;5.67;;;1.27;;
3347;SDS011;1687;49.540;8.574;2023-03-31T15:37:23;4.40;;;1.57;;
3347;SDS011;1687;49.540;8.574;2023-03-31T15:39:54;5.83;;;1.73;;
3347;SDS011;1687;49.540;8.574;2023-03-31T15:42:22;3.07;;;1.30;;
3347;SDS011;1687;49.540;8.574;2023-03-31T15:44:53;2.70;;;1.63;;
3347;SDS011;1687;49.540;8.574;2023-03-31T15:47:39;4.67;;;1.50;;
3347;SDS011;1687;49.540;8.574;2023-03-31T15:50:17;7.70;;;2.10;;
3347;SDS011;1687;49.540;8.574;2023-03-31T15:52:53;4.40;;;2.43;;
3347;SDS011;1687;49.540;8.574;2023-03-31T15:57:57;4.77;;;1.70;;
3347;SDS011;1687;49.540;8.574;2023-03-31T16:00:41;6.17;;;1.13;;
3347;SDS011;1687;49.540;8.574;2023-03-31T16:03:13;2.60;;;1.00;;
3347;SDS011;1687;49.540;8.574;2023-03-31T16:05:52;8.90;;;1.30;;
3347;SDS011;1687;49.540;8.574;2023-03-31T16:08:25;3.70;;;1.10;;
3347;SDS011;1687;49.540;8.574;2023-03-31T16:11:47;5.10;;;1.17;;
3347;SDS011;1687;49.540;8.574;2023-03-31T16:14:06;3.27;;;1.63;;
3347;SDS011;1687;49.540;8.574;2023-03-31T16:16:44;4.23;;;1.33;;
3347;SDS011;1687;49.540;8.574;2023-03-31T16:19:23;8.97;;;1.77;;
3347;SDS011;1687;49.540;8.574;2023-03-31T16:21:52;16.53;;;2.83;;
3347;SDS011;1687;49.540;8.574;2023-03-31T16:24:27;9.60;;;2.83;;
3347;SDS011;1687;49.540;8.574;2023-03-31T16:27:00;4.50;;;1.90;;
3347;SDS011;1687;49.540;8.574;2023-03-31T16:29:31;4.97;;;2.27;;
3347;SDS011;1687;49.540;8.574;2023-03-31T16:32:12;7.40;;;1.63;;
3347;SDS011;1687;49.540;8.574;2023-03-31T16:34:54;4.50;;;1.37;;
3347;SDS011;1687;49.540;8.574;2023-03-31T16:37:25;6.10;;;2.17;;
3347;SDS011;1687;49.540;8.574;2023-03-31T16:39:51;12.80;;;2.63;;
3347;SDS011;1687;49.540;8.574;2023-03-31T16:42:17;4.13;;;2.03;;
3347;SDS011;1687;49.540;8.574;2023-03-31T16:44:44;7.50;;;1.97;;
3347;SDS011;1687;49.540;8.574;2023-03-31T16:47:12;3.57;;;1.90;;
3347;SDS011;1687;49.540;8.574;2023-03-31T16:49:39;4.03;;;1.80;;
3347;SDS011;1687;49.540;8.574;2023-03-31T16:52:05;4.80;;;1.87;;
3347;SDS011;1687;49.540;8.574;2023-03-31T16:54:32;7.77;;;1.57;;
3347;SDS011;1687;49.540;8.574;2023-03-31T16:56:58;4.43;;;1.10;;
3347;SDS011;1687;49.540;8.574;2023-03-31T16:59:24;3.57;;;1.40;;
3347;SDS011;1687;49.540;8.574;2023-03-31T17:01:49;2.57;;;1.27;;
3347;SDS011;1687;49.540;8.574;2023-03-31T17:04:16;2.33;;;1.17;;
3347;SDS011;1687;49.540;8.574;2023-03-31T17:06:42;3.30;;;1.37;;
3347;SDS011;1687;49.540;8.574;2023-03-31T17:09:08;9.13;;;1.77;;
3347;SDS011;1687;49.540;8.574;2023-03-31T17:11:34;5.83;;;2.40;;
3347;SDS011;1687;49.540;8.574;2023-03-31T17:14:00;2.50;;;1.30;;
3347;SDS011;1687;49.540;8.574;2023-03-31T17:16:26;7.60;;;1.20;;
3347;SDS011;1687;49.540;8.574;2023-03-31T17:18:52;6.57;;;1.80;;
3347;SDS011;1687;49.540;8.574;2023-03-31T17:21:18;6.07;;;1.27;;
3347;SDS011;1687;49.540;8.574;2023-03-31T17:23:44;12.53;;;1.37;;
3347;SDS011;1687;49.540;8.574;2023-03-31T17:26:11;5.80;;;1.53;;
3347;SDS011;1687;49.540;8.574;2023-03-31T17:28:37;6.43;;;1.23;;
3347;SDS011;1687;49.540;8.574;2023-03-31T17:31:11;5.30;;;1.57;;
3347;SDS011;1687;49.540;8.574;2023-03-31T17:33:44;2.13;;;0.97;;
3347;SDS011;1687;49.540;8.574;2023-03-31T17:36:10;3.10;;;1.00;;
3347;SDS011;1687;49.540;8.574;2023-03-31T17:38:36;3.70;;;1.27;;
3347;SDS011;1687;49.540;8.574;2023-03-31T17:41:04;2.40;;;1.03;;
3347;SDS011;1687;49.540;8.574;2023-03-31T17:43:31;1.80;;;0.90;;
3347;SDS011;1687;49.540;8.574;2023-03-31T17:46:02;1.70;;;0.90;;
3347;SDS011;1687;49.540;8.574;2023-03-31T17:48:30;1.57;;;0.80;;
3347;SDS011;1687;49.540;8.574;2023-03-31T17:51:02;5.63;;;1.33;;
3347;SDS011;1687;49.540;8.574;2023-03-31T17:53:32;2.13;;;0.83;;
3347;SDS011;1687;49.540;8.574;2023-03-31T17:55:59;2.90;;;1.23;;
3347;SDS011;1687;49.540;8.574;2023-03-31T17:58:26;1.60;;;0.80;;
3347;SDS011;1687;49.540;8.574;2023-03-31T18:00:52;2.50;;;1.13;;
3347;SDS011;1687;49.540;8.574;2023-03-31T18:03:18;2.43;;;1.13;;
3347;SDS011;1687;49.540;8.574;2023-03-31T18:05:44;7.23;;;1.17;;
3347;SDS011;1687;49.540;8.574;2023-03-31T18:08:10;3.07;;;1.17;;
3347;SDS011;1687;49.540;8.574;2023-03-31T18:10:36;2.63;;;1.33;;
3347;SDS011;1687;49.540;8.574;2023-03-31T18:13:02;2.17;;;1.23;;